createdAt,value
2023-10-15T00:00:21.088Z,1.92
2023-10-15T00:02:49.665Z,1.80
2023-10-15T00:05:19.582Z,2.65
2023-10-15T00:07:50.834Z,4.25
2023-10-15T00:10:20.552Z,2.35
2023-10-15T00:12:51.286Z,2.72
2023-10-15T00:15:20.169Z,1.95
2023-10-15T00:17:48.710Z,2.95
2023-10-15T00:20:18.827Z,1.67
2023-10-15T00:22:45.953Z,1.70
2023-10-15T00:25:14.434Z,3.90
2023-10-15T00:27:43.254Z,1.73
2023-10-15T00:30:20.131Z,2.75
2023-10-15T00:32:48.244Z,1.35
2023-10-15T00:35:20.728Z,1.33
2023-10-15T00:37:56.684Z,2.25
2023-10-15T00:40:25.203Z,2.45
2023-10-15T00:42:52.690Z,1.88
2023-10-15T00:45:20.952Z,2.05
2023-10-15T00:48:07.712Z,1.70
2023-10-15T00:50:43.443Z,1.90
2023-10-15T00:53:25.189Z,1.92
2023-10-15T00:55:56.198Z,2.40
2023-10-15T00:58:32.175Z,1.95
2023-10-15T01:01:15.012Z,2.85
2023-10-15T01:03:49.616Z,3.28
2023-10-15T01:06:31.591Z,2.83
2023-10-15T01:09:12.442Z,2.53
2023-10-15T01:11:52.329Z,2.35
2023-10-15T01:14:26.781Z,2.50
2023-10-15T01:16:54.692Z,2.85
2023-10-15T01:19:32.465Z,5.13
2023-10-15T01:22:03.882Z,2.78
2023-10-15T01:24:37.466Z,2.88
2023-10-15T01:27:11.023Z,3.33
2023-10-15T01:29:45.140Z,2.42
2023-10-15T01:32:23.191Z,1.95
2023-10-15T01:34:51.258Z,3.30
2023-10-15T01:37:22.165Z,2.33
2023-10-15T01:39:50.011Z,2.65
2023-10-15T01:42:29.686Z,1.45
2023-10-15T01:45:15.111Z,3.40
2023-10-15T01:47:50.468Z,3.90
2023-10-15T01:50:34.048Z,2.97
2023-10-15T01:53:05.205Z,2.97
2023-10-15T01:55:36.935Z,3.55
2023-10-15T01:58:06.617Z,3.03
2023-10-15T02:00:42.803Z,1.73
2023-10-15T02:03:11.931Z,4.10
2023-10-15T02:05:47.858Z,3.60
2023-10-15T02:08:24.158Z,3.05
2023-10-15T02:10:54.221Z,2.78
2023-10-15T02:13:22.590Z,4.57
2023-10-15T02:15:50.699Z,1.10
2023-10-15T02:18:21.004Z,2.38
2023-10-15T02:20:54.439Z,2.75
2023-10-15T02:23:21.417Z,3.88
2023-10-15T02:25:57.333Z,2.38
2023-10-15T02:28:27.303Z,2.92
2023-10-15T02:31:03.831Z,2.72
2023-10-15T02:33:31.266Z,2.25
2023-10-15T02:36:00.592Z,2.08
2023-10-15T02:38:28.274Z,2.75
2023-10-15T02:41:04.046Z,6.80
2023-10-15T02:43:32.214Z,2.30
2023-10-15T02:46:01.416Z,3.05
2023-10-15T02:48:32.857Z,1.33
2023-10-15T02:51:04.983Z,2.65
2023-10-15T02:53:36.786Z,2.47
2023-10-15T02:56:11.498Z,2.88
2023-10-15T02:58:39.598Z,2.65
2023-10-15T03:01:24.887Z,1.58
2023-10-15T03:03:54.237Z,4.03
2023-10-15T03:06:33.180Z,1.90
2023-10-15T03:09:00.690Z,2.30
2023-10-15T03:11:32.754Z,2.53
2023-10-15T03:14:02.365Z,2.30
2023-10-15T03:16:33.906Z,2.22
2023-10-15T03:19:20.447Z,2.90
2023-10-15T03:21:47.409Z,1.88
2023-10-15T03:24:15.592Z,1.52
2023-10-15T03:26:48.493Z,2.13
2023-10-15T03:29:15.651Z,2.17
2023-10-15T03:31:50.142Z,1.83
2023-10-15T03:34:24.213Z,2.65
2023-10-15T03:36:52.446Z,2.67
2023-10-15T03:39:32.707Z,3.22
2023-10-15T03:42:18.854Z,1.50
2023-10-15T03:44:48.612Z,3.85
2023-10-15T03:47:17.274Z,3.92
2023-10-15T03:49:47.922Z,3.08
2023-10-15T03:52:21.675Z,2.83
2023-10-15T03:54:51.978Z,1.67
2023-10-15T03:57:23.676Z,2.72
2023-10-15T03:59:54.370Z,3.20
2023-10-15T04:02:40.834Z,2.97
2023-10-15T04:05:13.906Z,2.28
2023-10-15T04:07:50.245Z,2.40
2023-10-15T04:10:25.032Z,3.35
2023-10-15T04:12:52.536Z,1.98
2023-10-15T04:15:19.363Z,2.50
2023-10-15T04:17:46.809Z,2.63
2023-10-15T04:20:16.728Z,4.40
2023-10-15T04:22:47.522Z,2.42
2023-10-15T04:25:27.376Z,3.47
2023-10-15T04:27:55.287Z,2.65
2023-10-15T04:30:22.872Z,3.92
2023-10-15T04:32:49.515Z,2.28
2023-10-15T04:35:20.209Z,4.18
2023-10-15T04:37:49.915Z,3.05
2023-10-15T04:40:23.899Z,4.63
2023-10-15T04:42:51.453Z,1.85
2023-10-15T04:45:41.296Z,3.05
2023-10-15T04:48:15.499Z,2.30
2023-10-15T04:50:45.582Z,2.85
2023-10-15T04:53:15.433Z,2.10
2023-10-15T04:55:44.059Z,2.80
2023-10-15T04:58:11.869Z,2.55
2023-10-15T05:00:48.887Z,2.50
2023-10-15T05:03:16.363Z,2.67
2023-10-15T05:05:43.654Z,3.38
2023-10-15T05:08:14.884Z,3.58
2023-10-15T05:10:47.452Z,3.20
2023-10-15T05:13:15.038Z,3.05
2023-10-15T05:15:44.571Z,2.47
2023-10-15T05:18:11.601Z,2.45
2023-10-15T05:20:38.347Z,2.22
2023-10-15T05:23:05.601Z,2.78
2023-10-15T05:25:33.416Z,3.42
2023-10-15T05:28:02.964Z,2.75
2023-10-15T05:30:29.572Z,2.78
2023-10-15T05:32:56.269Z,2.83
2023-10-15T05:35:23.081Z,3.75
2023-10-15T05:37:49.889Z,3.33
2023-10-15T05:40:19.347Z,2.50
2023-10-15T05:42:45.940Z,2.88
2023-10-15T05:45:12.607Z,2.08
2023-10-15T05:47:39.394Z,1.67
2023-10-15T05:50:06.778Z,2.67
2023-10-15T05:52:33.660Z,2.03
2023-10-15T05:55:02.321Z,0.90
2023-10-15T05:57:29.880Z,0.98
2023-10-15T05:59:57.741Z,1.83
2023-10-15T06:02:24.702Z,1.55
2023-10-15T06:04:51.371Z,2.20
2023-10-15T06:07:18.117Z,1.13
2023-10-15T06:09:47.590Z,1.52
2023-10-15T06:12:17.027Z,1.55
2023-10-15T06:14:43.635Z,2.22
2023-10-15T06:17:10.369Z,1.52
2023-10-15T06:19:37.286Z,2.20
2023-10-15T06:22:04.511Z,1.63
2023-10-15T06:24:31.166Z,1.42
2023-10-15T06:26:58.485Z,1.40
2023-10-15T06:29:25.448Z,0.88
2023-10-15T06:31:52.597Z,1.65
2023-10-15T06:34:19.218Z,1.08
2023-10-15T06:36:48.705Z,1.40
2023-10-15T06:39:15.596Z,1.42
2023-10-15T06:41:42.273Z,2.15
2023-10-15T06:44:09.705Z,1.58
2023-10-15T06:46:36.590Z,2.20
2023-10-15T06:49:03.280Z,1.98
2023-10-15T06:51:29.963Z,3.28
2023-10-15T06:53:57.023Z,11.02
2023-10-15T06:56:23.653Z,4.97
2023-10-15T06:58:50.318Z,2.63
2023-10-15T07:01:17.056Z,2.30
2023-10-15T07:03:43.842Z,1.92
2023-10-15T07:06:10.465Z,1.90
2023-10-15T07:08:37.142Z,1.73
2023-10-15T07:13:33.445Z,3.35
2023-10-15T07:16:01.818Z,1.80
2023-10-15T07:18:29.066Z,1.77
2023-10-15T07:20:56.190Z,1.50
2023-10-15T07:23:22.878Z,2.25
2023-10-15T07:25:49.584Z,1.55
2023-10-15T07:28:16.615Z,1.60
2023-10-15T07:30:43.684Z,1.10
2023-10-15T07:33:11.481Z,2.17
2023-10-15T07:35:38.726Z,2.45
2023-10-15T07:38:05.869Z,1.65
2023-10-15T07:40:36.013Z,2.35
2023-10-15T07:43:03.971Z,1.30
2023-10-15T07:45:32.789Z,1.13
2023-10-15T07:48:02.640Z,2.35
2023-10-15T07:50:32.088Z,1.45
2023-10-15T07:52:59.915Z,3.92
2023-10-15T07:55:27.769Z,2.58
2023-10-15T07:57:54.840Z,1.70
2023-10-15T08:00:27.276Z,1.60
2023-10-15T08:02:58.574Z,2.20
2023-10-15T08:05:27.494Z,1.67
2023-10-15T08:07:56.058Z,2.55
2023-10-15T08:10:22.980Z,1.67
2023-10-15T08:12:53.515Z,2.40
2023-10-15T08:15:20.715Z,1.75
2023-10-15T08:17:47.917Z,1.58
2023-10-15T08:20:14.963Z,1.90
2023-10-15T08:22:42.134Z,3.20
2023-10-15T08:25:15.870Z,3.10
2023-10-15T08:27:45.359Z,2.63
2023-10-15T08:30:13.845Z,1.55
2023-10-15T08:32:45.456Z,2.20
2023-10-15T08:35:15.042Z,2.15
2023-10-15T08:37:42.962Z,2.33
2023-10-15T08:40:16.676Z,2.35
2023-10-15T08:42:51.575Z,1.98
2023-10-15T08:45:23.285Z,4.15
2023-10-15T08:47:51.493Z,4.15
2023-10-15T08:50:22.389Z,3.25
2023-10-15T08:52:54.716Z,3.55
2023-10-15T08:55:25.565Z,2.85
2023-10-15T08:57:56.234Z,2.00
2023-10-15T09:02:57.813Z,4.18
2023-10-15T09:05:24.972Z,2.53
2023-10-15T09:07:53.852Z,3.85
2023-10-15T09:10:20.767Z,3.03
2023-10-15T09:12:49.135Z,6.15
2023-10-15T09:15:17.634Z,4.60
2023-10-15T09:18:04.805Z,2.42
2023-10-15T09:20:34.262Z,1.50
2023-10-15T09:23:04.084Z,3.83
2023-10-15T09:25:31.634Z,2.00
2023-10-15T09:27:59.479Z,3.17
2023-10-15T09:30:27.678Z,1.60
2023-10-15T09:32:56.023Z,3.15
2023-10-15T09:35:23.123Z,5.13
2023-10-15T09:37:50.259Z,2.50
2023-10-15T09:40:20.346Z,2.70
2023-10-15T09:42:50.349Z,3.08
2023-10-15T09:45:20.448Z,2.13
2023-10-15T09:47:53.611Z,3.45
2023-10-15T09:50:21.264Z,2.70
2023-10-15T09:52:56.535Z,3.13
2023-10-15T09:55:33.683Z,2.55
2023-10-15T09:58:10.354Z,5.53
2023-10-15T10:00:56.011Z,3.28
2023-10-15T10:03:41.144Z,3.17
2023-10-15T10:06:38.396Z,3.67
2023-10-15T10:09:22.836Z,3.80
2023-10-15T10:12:14.867Z,3.40
2023-10-15T10:15:11.780Z,2.65
2023-10-15T10:17:39.976Z,2.00
2023-10-15T10:20:13.498Z,1.35
2023-10-15T10:22:44.208Z,3.65
2023-10-15T10:25:30.841Z,2.45
2023-10-15T10:28:17.971Z,2.00
2023-10-15T10:31:00.870Z,1.75
2023-10-15T10:33:45.904Z,2.15
2023-10-15T10:36:14.962Z,2.40
2023-10-15T10:39:14.811Z,4.50
2023-10-15T10:41:47.016Z,1.48
2023-10-15T10:44:40.626Z,2.50
2023-10-15T10:47:48.159Z,3.35
2023-10-15T10:50:20.748Z,1.65
2023-10-15T10:53:15.144Z,2.33
2023-10-15T10:55:41.939Z,1.48
2023-10-15T10:58:22.770Z,3.70
2023-10-15T11:00:49.789Z,1.85
2023-10-15T11:03:16.603Z,5.22
2023-10-15T11:05:43.771Z,1.77
2023-10-15T11:08:20.515Z,3.55
2023-10-15T11:10:48.720Z,3.80
2023-10-15T11:13:19.358Z,0.70
2023-10-15T11:15:50.629Z,2.15
2023-10-15T11:18:30.797Z,2.17
2023-10-15T11:20:57.566Z,2.55
2023-10-15T11:23:25.225Z,2.20
2023-10-15T11:25:55.554Z,2.92
2023-10-15T11:28:22.372Z,2.92
2023-10-15T11:30:49.229Z,1.65
2023-10-15T11:33:18.830Z,1.75
2023-10-15T11:35:54.925Z,2.97
2023-10-15T11:38:21.788Z,1.58
2023-10-15T11:40:48.547Z,3.13
2023-10-15T11:43:19.470Z,1.80
2023-10-15T11:45:49.795Z,3.40
2023-10-15T11:48:22.731Z,3.20
2023-10-15T11:50:49.786Z,1.73
2023-10-15T11:53:25.333Z,1.42
2023-10-15T11:55:55.441Z,4.00
2023-10-15T12:00:54.047Z,2.22
2023-10-15T12:03:21.805Z,2.92
2023-10-15T12:05:50.242Z,2.72
2023-10-15T12:08:18.064Z,3.15
2023-10-15T12:10:44.909Z,2.53
2023-10-15T12:13:13.255Z,3.50
2023-10-15T12:15:39.984Z,2.55
2023-10-15T12:18:06.819Z,4.28
2023-10-15T12:20:34.123Z,3.35
2023-10-15T12:23:00.955Z,2.15
2023-10-15T12:25:28.167Z,3.13
2023-10-15T12:27:54.857Z,3.95
2023-10-15T12:30:30.393Z,3.90
2023-10-15T12:32:59.564Z,2.85
2023-10-15T12:35:28.766Z,3.78
2023-10-15T12:38:06.403Z,4.20
2023-10-15T12:40:34.023Z,2.03
2023-10-15T12:43:10.218Z,7.38
2023-10-15T12:45:37.407Z,4.22
2023-10-15T12:48:06.277Z,4.45
2023-10-15T12:50:33.358Z,3.13
2023-10-15T12:53:00.007Z,2.83
2023-10-15T12:55:27.061Z,2.20
2023-10-15T12:57:54.410Z,2.20
2023-10-15T13:00:27.404Z,6.13
2023-10-15T13:02:57.606Z,3.28
2023-10-15T13:05:26.509Z,2.40
2023-10-15T13:07:54.822Z,3.83
2023-10-15T13:10:22.393Z,2.28
2023-10-15T13:12:50.520Z,1.38
2023-10-15T13:15:22.748Z,1.92
2023-10-15T13:17:51.043Z,2.17
2023-10-15T13:20:19.156Z,1.98
2023-10-15T13:22:46.260Z,2.85
2023-10-15T13:25:13.942Z,3.25
2023-10-15T13:27:42.151Z,1.83
2023-10-15T13:30:14.382Z,1.08
2023-10-15T13:32:46.088Z,3.10
2023-10-15T13:35:13.215Z,2.67
2023-10-15T13:37:48.564Z,2.00
2023-10-15T13:40:16.784Z,5.40
2023-10-15T13:42:48.608Z,2.15
2023-10-15T13:45:19.554Z,2.03
2023-10-15T13:47:48.033Z,1.98
2023-10-15T13:50:18.307Z,2.40
2023-10-15T13:52:45.290Z,3.70
2023-10-15T13:55:13.698Z,4.75
2023-10-15T13:57:40.919Z,3.55
2023-10-15T14:00:13.574Z,3.03
2023-10-15T14:02:42.486Z,3.88
2023-10-15T14:05:10.045Z,3.17
2023-10-15T14:07:37.655Z,3.28
2023-10-15T14:10:05.413Z,3.78
2023-10-15T14:12:32.662Z,2.33
2023-10-15T14:14:59.620Z,2.03
2023-10-15T14:17:26.630Z,2.85
2023-10-15T14:19:55.794Z,3.00
2023-10-15T14:22:24.552Z,2.80
2023-10-15T14:24:51.864Z,2.03
2023-10-15T14:27:18.837Z,3.28
2023-10-15T14:29:46.557Z,4.60
2023-10-15T14:32:13.494Z,2.63
2023-10-15T14:34:40.204Z,2.47
2023-10-15T14:37:07.359Z,3.45
2023-10-15T14:39:34.316Z,3.80
2023-10-15T14:42:00.963Z,2.42
2023-10-15T14:44:27.764Z,2.90
2023-10-15T14:46:57.452Z,3.90
2023-10-15T14:49:24.133Z,3.10
2023-10-15T14:51:50.796Z,2.28
2023-10-15T14:54:17.434Z,5.15
2023-10-15T14:56:44.303Z,2.58
2023-10-15T14:59:11.074Z,2.25
2023-10-15T15:01:37.820Z,2.47
2023-10-15T15:04:05.996Z,5.90
2023-10-15T15:06:37.202Z,3.00
2023-10-15T15:09:10.191Z,3.13
2023-10-15T15:11:37.570Z,2.17
2023-10-15T15:14:04.463Z,2.75
2023-10-15T15:16:32.000Z,3.15
2023-10-15T15:18:58.801Z,3.67
2023-10-15T15:21:26.087Z,3.83
2023-10-15T15:23:53.923Z,3.05
2023-10-15T15:26:20.767Z,3.67
2023-10-15T15:28:47.565Z,3.70
2023-10-15T15:31:14.340Z,2.95
2023-10-15T15:33:41.245Z,3.58
2023-10-15T15:36:08.222Z,3.05
2023-10-15T15:38:35.269Z,3.15
2023-10-15T15:41:09.719Z,2.50
2023-10-15T15:43:36.998Z,2.13
2023-10-15T15:46:10.432Z,2.63
2023-10-15T15:48:37.261Z,3.85
2023-10-15T15:51:07.668Z,2.67
2023-10-15T15:53:36.657Z,2.53
2023-10-15T15:56:04.218Z,2.67
2023-10-15T15:58:31.204Z,3.50
2023-10-15T16:00:57.961Z,3.17
2023-10-15T16:03:25.097Z,3.25
2023-10-15T16:06:01.036Z,2.53
2023-10-15T16:08:28.283Z,2.40
2023-10-15T16:10:57.672Z,5.03
2023-10-15T16:13:24.956Z,3.63
2023-10-15T16:15:52.780Z,3.78
2023-10-15T16:18:20.942Z,3.47
2023-10-15T16:20:51.695Z,2.97
2023-10-15T16:23:18.389Z,4.15
2023-10-15T16:25:45.537Z,2.70
2023-10-15T16:28:12.275Z,5.47
2023-10-15T16:30:39.672Z,7.43
2023-10-15T16:33:06.476Z,5.43
2023-10-15T16:35:34.470Z,5.18
2023-10-15T16:38:09.037Z,4.15
2023-10-15T16:40:36.083Z,4.25
2023-10-15T16:43:03.502Z,5.38
2023-10-15T16:45:30.317Z,4.78
2023-10-15T16:47:57.343Z,4.57
2023-10-15T16:50:25.897Z,5.70
2023-10-15T16:52:58.277Z,4.20
2023-10-15T16:55:25.388Z,4.93
2023-10-15T16:57:52.103Z,6.95
2023-10-15T17:00:22.840Z,5.03
2023-10-15T17:02:49.793Z,6.18
2023-10-15T17:05:16.716Z,4.45
2023-10-15T17:07:43.588Z,4.00
2023-10-15T17:10:12.758Z,4.43
2023-10-15T17:12:39.560Z,3.95
2023-10-15T17:15:06.768Z,4.20
2023-10-15T17:17:33.606Z,5.63
2023-10-15T17:20:00.257Z,4.20
2023-10-15T17:22:26.941Z,3.13
2023-10-15T17:24:55.925Z,2.30
2023-10-15T17:27:22.717Z,3.75
2023-10-15T17:30:07.592Z,2.92
2023-10-15T17:32:37.284Z,4.15
2023-10-15T17:35:04.971Z,2.45
2023-10-15T17:37:31.843Z,5.28
2023-10-15T17:39:59.608Z,3.70
2023-10-15T17:42:26.322Z,6.03
2023-10-15T17:44:53.927Z,5.97
2023-10-15T17:47:20.659Z,4.03
2023-10-15T17:49:47.342Z,4.95
2023-10-15T17:52:14.110Z,6.55
2023-10-15T17:54:41.046Z,5.50
2023-10-15T17:57:07.828Z,4.93
2023-10-15T17:59:36.807Z,4.53
2023-10-15T18:02:03.796Z,6.00
2023-10-15T18:04:30.930Z,6.32
2023-10-15T18:06:58.198Z,5.60
2023-10-15T18:09:25.301Z,6.43
2023-10-15T18:11:52.615Z,5.32
2023-10-15T18:14:19.570Z,7.05
2023-10-15T18:16:46.376Z,7.40
2023-10-15T18:19:13.628Z,6.53
2023-10-15T18:21:40.509Z,5.43
2023-10-15T18:24:07.805Z,4.68
2023-10-15T18:26:34.579Z,4.78
2023-10-15T18:29:01.371Z,7.13
2023-10-15T18:31:28.370Z,4.78
2023-10-15T18:33:55.132Z,5.63
2023-10-15T18:36:22.893Z,5.78
2023-10-15T18:38:49.664Z,7.13
2023-10-15T18:41:17.612Z,4.63
2023-10-15T18:43:45.626Z,4.60
2023-10-15T18:46:13.321Z,4.45
2023-10-15T18:48:41.388Z,4.57
2023-10-15T18:51:27.642Z,4.15
2023-10-15T18:53:58.791Z,3.65
2023-10-15T18:56:25.643Z,3.15
2023-10-15T18:58:53.443Z,4.22
2023-10-15T19:01:25.972Z,4.07
2023-10-15T19:03:52.814Z,16.88
2023-10-15T19:06:20.144Z,15.38
2023-10-15T19:08:47.058Z,8.45
2023-10-15T19:11:16.744Z,5.13
2023-10-15T19:13:43.750Z,6.50
2023-10-15T19:16:10.779Z,5.32
2023-10-15T19:18:38.669Z,4.03
2023-10-15T19:21:06.022Z,3.70
2023-10-15T19:23:32.791Z,4.30
2023-10-15T19:26:10.167Z,4.97
2023-10-15T19:28:39.244Z,4.93
2023-10-15T19:31:08.810Z,3.78
2023-10-15T19:33:36.387Z,4.00
2023-10-15T19:36:03.800Z,5.93
2023-10-15T19:38:33.317Z,5.60
2023-10-15T19:41:00.190Z,6.18
2023-10-15T19:43:29.910Z,4.75
2023-10-15T19:45:57.754Z,5.63
2023-10-15T19:48:25.422Z,4.65
2023-10-15T19:50:52.525Z,3.53
2023-10-15T19:53:21.703Z,3.80
2023-10-15T19:55:48.517Z,7.32
2023-10-15T19:58:16.010Z,4.63
2023-10-15T20:00:45.065Z,4.82
2023-10-15T20:03:13.452Z,7.13
2023-10-15T20:05:40.831Z,7.65
2023-10-15T20:08:07.555Z,10.63
2023-10-15T20:10:35.237Z,7.93
2023-10-15T20:13:03.757Z,4.53
2023-10-15T20:15:32.204Z,9.48
2023-10-15T20:17:59.914Z,8.65
2023-10-15T20:20:26.950Z,7.18
2023-10-15T20:22:53.665Z,8.95
2023-10-15T20:25:20.517Z,11.13
2023-10-15T20:27:48.281Z,10.80
2023-10-15T20:30:16.844Z,14.00
2023-10-15T20:32:55.493Z,8.13
2023-10-15T20:35:24.280Z,7.90
2023-10-15T20:37:52.763Z,8.35
2023-10-15T20:40:21.681Z,11.40
2023-10-15T20:42:50.119Z,5.28
2023-10-15T20:45:18.921Z,10.55
2023-10-15T20:47:50.431Z,16.50
2023-10-15T20:50:20.081Z,10.00
2023-10-15T20:52:48.043Z,10.18
2023-10-15T20:55:15.807Z,5.90
2023-10-15T20:57:43.045Z,6.55
2023-10-15T21:00:14.982Z,21.27
2023-10-15T21:02:44.122Z,23.98
2023-10-15T21:05:11.827Z,24.30
2023-10-15T21:07:40.593Z,8.13
2023-10-15T21:10:10.739Z,5.50
2023-10-15T21:12:37.890Z,5.63
2023-10-15T21:15:07.269Z,6.72
2023-10-15T21:17:34.475Z,6.25
2023-10-15T21:20:02.389Z,4.55
2023-10-15T21:22:29.919Z,4.38
2023-10-15T21:24:56.771Z,5.78
2023-10-15T21:27:23.676Z,5.38
2023-10-15T21:29:50.438Z,4.75
2023-10-15T21:32:19.594Z,5.18
2023-10-15T21:34:46.285Z,6.07
2023-10-15T21:37:13.263Z,3.60
2023-10-15T21:39:40.232Z,5.55
2023-10-15T21:42:07.291Z,5.35
2023-10-15T21:44:34.195Z,5.15
2023-10-15T21:47:00.976Z,5.57
2023-10-15T21:49:27.642Z,6.20
2023-10-15T21:51:54.454Z,6.22
2023-10-15T21:54:21.166Z,4.20
2023-10-15T21:56:47.851Z,4.43
2023-10-15T21:59:14.558Z,5.35
2023-10-15T22:01:41.416Z,3.50
2023-10-15T22:04:08.230Z,5.07
2023-10-15T22:06:36.683Z,3.55
2023-10-15T22:09:12.294Z,7.15
2023-10-15T22:11:40.282Z,6.93
2023-10-15T22:14:08.079Z,4.70
2023-10-15T22:16:35.014Z,3.38
2023-10-15T22:19:08.884Z,4.75
2023-10-15T22:21:36.911Z,5.35
2023-10-15T22:24:07.050Z,6.15
2023-10-15T22:26:36.419Z,3.53
2023-10-15T22:29:07.730Z,4.35
2023-10-15T22:31:34.630Z,2.97
2023-10-15T22:34:01.554Z,2.13
2023-10-15T22:36:28.566Z,4.22
2023-10-15T22:38:55.424Z,3.00
2023-10-15T22:41:22.587Z,3.78
2023-10-15T22:43:49.724Z,3.10
2023-10-15T22:46:16.564Z,3.65
2023-10-15T22:48:43.636Z,3.70
2023-10-15T22:51:11.692Z,3.00
2023-10-15T22:53:39.013Z,4.25
2023-10-15T22:56:05.849Z,5.55
2023-10-15T22:58:32.718Z,3.20
2023-10-15T23:01:01.530Z,3.35
2023-10-15T23:03:30.008Z,3.75
2023-10-15T23:05:57.036Z,6.20
2023-10-15T23:08:23.843Z,7.65
2023-10-15T23:10:50.540Z,7.47
2023-10-15T23:13:18.550Z,3.17
2023-10-15T23:15:46.083Z,5.22
2023-10-15T23:18:18.028Z,2.75
2023-10-15T23:20:45.078Z,4.70
2023-10-15T23:23:22.433Z,3.28
2023-10-15T23:25:53.126Z,4.63
2023-10-15T23:28:27.512Z,6.68
2023-10-15T23:30:57.741Z,3.58
2023-10-15T23:35:56.273Z,1.25
2023-10-15T23:38:25.312Z,1.90
2023-10-15T23:40:54.202Z,2.13
2023-10-15T23:43:25.194Z,2.28
2023-10-15T23:46:06.857Z,3.95
2023-10-15T23:48:38.341Z,2.65
2023-10-15T23:51:11.903Z,3.78
2023-10-15T23:53:40.123Z,2.70
2023-10-15T23:56:14.273Z,2.53
2023-10-15T23:58:51.162Z,3.03
